sensor_id;sensor_type;location;lat;lon;timestamp;P1;durP1;ratioP1;P2;durP2;ratioP2
12171;SDS011;6149;52.418;13.668;2023-09-19T00:00:45;4.27;;;2.37;;
12171;SDS011;6149;52.418;13.668;2023-09-19T00:03:17;3.13;;;2.13;;
12171;SDS011;6149;52.418;13.668;2023-09-19T00:05:45;4.67;;;2.30;;
12171;SDS011;6149;52.418;13.668;2023-09-19T00:08:16;5.17;;;2.20;;
12171;SDS011;6149;52.418;13.668;2023-09-19T00:10:47;2.77;;;2.43;;
12171;SDS011;6149;52.418;13.668;2023-09-19T00:13:15;3.63;;;2.00;;
12171;SDS011;6149;52.418;13.668;2023-09-19T00:15:48;5.87;;;2.60;;
12171;SDS011;6149;52.418;13.668;2023-09-19T00:18:16;4.93;;;2.63;;
12171;SDS011;6149;52.418;13.668;2023-09-19T00:20:46;2.87;;;2.17;;
12171;SDS011;6149;52.418;13.668;2023-09-19T00:23:15;5.33;;;2.60;;
12171;SDS011;6149;52.418;13.668;2023-09-19T00:25:43;4.23;;;2.20;;
12171;SDS011;6149;52.418;13.668;2023-09-19T00:28:11;4.00;;;2.40;;
12171;SDS011;6149;52.418;13.668;2023-09-19T00:30:44;4.63;;;2.40;;
12171;SDS011;6149;52.418;13.668;2023-09-19T00:33:15;4.17;;;2.17;;
12171;SDS011;6149;52.418;13.668;2023-09-19T00:35:46;6.40;;;2.50;;
12171;SDS011;6149;52.418;13.668;2023-09-19T00:38:15;4.87;;;2.37;;
12171;SDS011;6149;52.418;13.668;2023-09-19T00:40:46;3.80;;;2.27;;
12171;SDS011;6149;52.418;13.668;2023-09-19T00:43:12;5.47;;;2.40;;
12171;SDS011;6149;52.418;13.668;2023-09-19T00:45:42;5.80;;;2.30;;
12171;SDS011;6149;52.418;13.668;2023-09-19T00:48:14;4.40;;;2.50;;
12171;SDS011;6149;52.418;13.668;2023-09-19T00:50:43;4.87;;;2.53;;
12171;SDS011;6149;52.418;13.668;2023-09-19T00:53:14;3.77;;;2.53;;
12171;SDS011;6149;52.418;13.668;2023-09-19T00:55:47;4.30;;;2.40;;
12171;SDS011;6149;52.418;13.668;2023-09-19T00:58:17;5.10;;;2.30;;
12171;SDS011;6149;52.418;13.668;2023-09-19T01:00:47;5.30;;;2.60;;
12171;SDS011;6149;52.418;13.668;2023-09-19T01:03:14;6.37;;;2.47;;
12171;SDS011;6149;52.418;13.668;2023-09-19T01:05:43;3.60;;;2.30;;
12171;SDS011;6149;52.418;13.668;2023-09-19T01:08:13;3.43;;;2.57;;
12171;SDS011;6149;52.418;13.668;2023-09-19T01:10:43;6.23;;;2.40;;
12171;SDS011;6149;52.418;13.668;2023-09-19T01:13:21;4.53;;;2.43;;
12171;SDS011;6149;52.418;13.668;2023-09-19T01:15:59;4.33;;;2.20;;
12171;SDS011;6149;52.418;13.668;2023-09-19T01:18:40;4.57;;;2.20;;
12171;SDS011;6149;52.418;13.668;2023-09-19T01:21:15;4.97;;;2.70;;
12171;SDS011;6149;52.418;13.668;2023-09-19T01:27:12;4.67;;;2.20;;
12171;SDS011;6149;52.418;13.668;2023-09-19T01:30:03;4.90;;;2.50;;
12171;SDS011;6149;52.418;13.668;2023-09-19T01:32:39;4.73;;;2.10;;
12171;SDS011;6149;52.418;13.668;2023-09-19T01:35:13;3.60;;;2.30;;
12171;SDS011;6149;52.418;13.668;2023-09-19T01:37:42;3.07;;;2.10;;
12171;SDS011;6149;52.418;13.668;2023-09-19T01:40:10;3.20;;;1.90;;
12171;SDS011;6149;52.418;13.668;2023-09-19T01:42:45;4.50;;;2.33;;
12171;SDS011;6149;52.418;13.668;2023-09-19T01:45:26;3.93;;;2.37;;
12171;SDS011;6149;52.418;13.668;2023-09-19T01:48:05;3.70;;;2.27;;
12171;SDS011;6149;52.418;13.668;2023-09-19T01:50:49;2.33;;;2.03;;
12171;SDS011;6149;52.418;13.668;2023-09-19T01:53:24;4.77;;;2.60;;
12171;SDS011;6149;52.418;13.668;2023-09-19T01:55:56;3.80;;;2.20;;
12171;SDS011;6149;52.418;13.668;2023-09-19T01:58:27;3.00;;;2.03;;
12171;SDS011;6149;52.418;13.668;2023-09-19T02:01:03;4.23;;;2.47;;
12171;SDS011;6149;52.418;13.668;2023-09-19T02:03:33;3.20;;;2.10;;
12171;SDS011;6149;52.418;13.668;2023-09-19T02:06:03;4.13;;;2.50;;
12171;SDS011;6149;52.418;13.668;2023-09-19T02:08:38;4.47;;;2.33;;
12171;SDS011;6149;52.418;13.668;2023-09-19T02:11:07;3.43;;;2.00;;
12171;SDS011;6149;52.418;13.668;2023-09-19T02:13:34;7.07;;;2.20;;
12171;SDS011;6149;52.418;13.668;2023-09-19T02:16:06;3.83;;;2.20;;
12171;SDS011;6149;52.418;13.668;2023-09-19T02:18:36;2.80;;;2.03;;
12171;SDS011;6149;52.418;13.668;2023-09-19T02:21:06;2.53;;;1.87;;
12171;SDS011;6149;52.418;13.668;2023-09-19T02:23:36;2.57;;;2.20;;
12171;SDS011;6149;52.418;13.668;2023-09-19T02:26:15;3.33;;;2.50;;
12171;SDS011;6149;52.418;13.668;2023-09-19T02:28:44;5.43;;;2.23;;
12171;SDS011;6149;52.418;13.668;2023-09-19T02:31:17;4.87;;;2.10;;
12171;SDS011;6149;52.418;13.668;2023-09-19T02:33:44;5.03;;;2.47;;
12171;SDS011;6149;52.418;13.668;2023-09-19T02:36:12;6.10;;;2.70;;
12171;SDS011;6149;52.418;13.668;2023-09-19T02:38:43;3.60;;;2.27;;
12171;SDS011;6149;52.418;13.668;2023-09-19T02:41:11;7.93;;;3.43;;
12171;SDS011;6149;52.418;13.668;2023-09-19T02:43:39;8.97;;;3.07;;
12171;SDS011;6149;52.418;13.668;2023-09-19T02:46:09;6.87;;;2.77;;
12171;SDS011;6149;52.418;13.668;2023-09-19T02:48:45;3.33;;;2.30;;
12171;SDS011;6149;52.418;13.668;2023-09-19T02:51:13;5.37;;;2.67;;
12171;SDS011;6149;52.418;13.668;2023-09-19T02:53:41;7.27;;;2.70;;
12171;SDS011;6149;52.418;13.668;2023-09-19T02:56:09;10.50;;;3.57;;
12171;SDS011;6149;52.418;13.668;2023-09-19T02:58:40;5.20;;;2.20;;
12171;SDS011;6149;52.418;13.668;2023-09-19T03:01:10;3.87;;;2.23;;
12171;SDS011;6149;52.418;13.668;2023-09-19T03:03:39;4.53;;;2.20;;
12171;SDS011;6149;52.418;13.668;2023-09-19T03:06:13;3.27;;;2.20;;
12171;SDS011;6149;52.418;13.668;2023-09-19T03:08:42;5.13;;;2.60;;
12171;SDS011;6149;52.418;13.668;2023-09-19T03:11:10;4.20;;;2.40;;
12171;SDS011;6149;52.418;13.668;2023-09-19T03:13:41;2.90;;;1.90;;
12171;SDS011;6149;52.418;13.668;2023-09-19T03:16:10;3.43;;;1.90;;
12171;SDS011;6149;52.418;13.668;2023-09-19T03:18:40;4.57;;;2.40;;
12171;SDS011;6149;52.418;13.668;2023-09-19T03:21:11;5.10;;;2.40;;
12171;SDS011;6149;52.418;13.668;2023-09-19T03:23:47;3.57;;;2.00;;
12171;SDS011;6149;52.418;13.668;2023-09-19T03:26:16;4.37;;;2.50;;
12171;SDS011;6149;52.418;13.668;2023-09-19T03:28:44;4.47;;;2.60;;
12171;SDS011;6149;52.418;13.668;2023-09-19T03:31:12;5.23;;;2.40;;
12171;SDS011;6149;52.418;13.668;2023-09-19T03:33:43;4.07;;;2.60;;
12171;SDS011;6149;52.418;13.668;2023-09-19T03:36:11;3.43;;;2.27;;
12171;SDS011;6149;52.418;13.668;2023-09-19T03:38:42;4.10;;;2.43;;
12171;SDS011;6149;52.418;13.668;2023-09-19T03:41:10;3.57;;;2.50;;
12171;SDS011;6149;52.418;13.668;2023-09-19T03:43:40;3.60;;;2.20;;
12171;SDS011;6149;52.418;13.668;2023-09-19T03:46:11;4.20;;;2.57;;
12171;SDS011;6149;52.418;13.668;2023-09-19T03:48:40;3.73;;;2.33;;
12171;SDS011;6149;52.418;13.668;2023-09-19T03:51:08;4.07;;;2.30;;
12171;SDS011;6149;52.418;13.668;2023-09-19T03:53:40;3.93;;;2.50;;
12171;SDS011;6149;52.418;13.668;2023-09-19T03:56:10;3.63;;;2.47;;
12171;SDS011;6149;52.418;13.668;2023-09-19T03:58:40;5.47;;;3.13;;
12171;SDS011;6149;52.418;13.668;2023-09-19T04:01:10;4.13;;;2.70;;
12171;SDS011;6149;52.418;13.668;2023-09-19T04:03:40;3.10;;;2.47;;
12171;SDS011;6149;52.418;13.668;2023-09-19T04:06:19;4.00;;;2.47;;
12171;SDS011;6149;52.418;13.668;2023-09-19T04:08:48;5.07;;;3.00;;
12171;SDS011;6149;52.418;13.668;2023-09-19T04:11:18;5.50;;;2.50;;
12171;SDS011;6149;52.418;13.668;2023-09-19T04:13:47;4.80;;;1.90;;
12171;SDS011;6149;52.418;13.668;2023-09-19T04:16:18;5.07;;;2.40;;
12171;SDS011;6149;52.418;13.668;2023-09-19T04:18:47;3.00;;;2.20;;
12171;SDS011;6149;52.418;13.668;2023-09-19T04:21:15;3.67;;;2.17;;
12171;SDS011;6149;52.418;13.668;2023-09-19T04:23:48;3.60;;;2.30;;
12171;SDS011;6149;52.418;13.668;2023-09-19T04:26:16;3.57;;;2.23;;
12171;SDS011;6149;52.418;13.668;2023-09-19T04:28:43;3.83;;;2.33;;
12171;SDS011;6149;52.418;13.668;2023-09-19T04:31:13;2.20;;;2.00;;
12171;SDS011;6149;52.418;13.668;2023-09-19T04:33:43;3.37;;;1.97;;
12171;SDS011;6149;52.418;13.668;2023-09-19T04:36:13;4.13;;;2.30;;
12171;SDS011;6149;52.418;13.668;2023-09-19T04:38:40;4.53;;;2.30;;
12171;SDS011;6149;52.418;13.668;2023-09-19T04:41:13;2.90;;;2.10;;
12171;SDS011;6149;52.418;13.668;2023-09-19T04:43:41;3.87;;;2.23;;
12171;SDS011;6149;52.418;13.668;2023-09-19T04:46:08;2.90;;;2.17;;
12171;SDS011;6149;52.418;13.668;2023-09-19T04:48:40;3.67;;;2.33;;
12171;SDS011;6149;52.418;13.668;2023-09-19T04:51:12;3.70;;;1.83;;
12171;SDS011;6149;52.418;13.668;2023-09-19T04:53:41;3.93;;;2.30;;
12171;SDS011;6149;52.418;13.668;2023-09-19T04:56:16;4.27;;;2.23;;
12171;SDS011;6149;52.418;13.668;2023-09-19T04:58:44;3.40;;;2.17;;
12171;SDS011;6149;52.418;13.668;2023-09-19T05:01:10;6.73;;;2.33;;
12171;SDS011;6149;52.418;13.668;2023-09-19T05:03:40;4.10;;;2.50;;
12171;SDS011;6149;52.418;13.668;2023-09-19T05:06:10;5.30;;;2.20;;
12171;SDS011;6149;52.418;13.668;2023-09-19T05:08:39;3.10;;;1.83;;
12171;SDS011;6149;52.418;13.668;2023-09-19T05:11:16;3.97;;;2.47;;
12171;SDS011;6149;52.418;13.668;2023-09-19T05:13:43;3.10;;;2.23;;
12171;SDS011;6149;52.418;13.668;2023-09-19T05:16:14;4.83;;;2.27;;
12171;SDS011;6149;52.418;13.668;2023-09-19T05:18:44;4.13;;;2.50;;
12171;SDS011;6149;52.418;13.668;2023-09-19T05:21:12;3.43;;;2.10;;
12171;SDS011;6149;52.418;13.668;2023-09-19T05:23:41;2.57;;;1.90;;
12171;SDS011;6149;52.418;13.668;2023-09-19T05:26:15;3.67;;;2.20;;
12171;SDS011;6149;52.418;13.668;2023-09-19T05:28:44;2.63;;;2.10;;
12171;SDS011;6149;52.418;13.668;2023-09-19T05:31:14;4.17;;;2.00;;
12171;SDS011;6149;52.418;13.668;2023-09-19T05:33:43;3.53;;;2.17;;
12171;SDS011;6149;52.418;13.668;2023-09-19T05:36:10;3.90;;;2.10;;
12171;SDS011;6149;52.418;13.668;2023-09-19T05:38:39;3.17;;;2.10;;
12171;SDS011;6149;52.418;13.668;2023-09-19T05:41:08;3.23;;;2.10;;
12171;SDS011;6149;52.418;13.668;2023-09-19T05:43:44;5.37;;;2.03;;
12171;SDS011;6149;52.418;13.668;2023-09-19T05:46:12;5.50;;;2.23;;
12171;SDS011;6149;52.418;13.668;2023-09-19T05:48:42;2.53;;;2.20;;
12171;SDS011;6149;52.418;13.668;2023-09-19T05:51:09;4.37;;;1.80;;
12171;SDS011;6149;52.418;13.668;2023-09-19T05:53:38;2.73;;;1.93;;
12171;SDS011;6149;52.418;13.668;2023-09-19T05:56:09;2.77;;;1.90;;
12171;SDS011;6149;52.418;13.668;2023-09-19T05:58:42;3.33;;;1.90;;
12171;SDS011;6149;52.418;13.668;2023-09-19T06:01:09;4.97;;;2.30;;
12171;SDS011;6149;52.418;13.668;2023-09-19T06:03:44;2.27;;;2.00;;
12171;SDS011;6149;52.418;13.668;2023-09-19T06:06:14;4.07;;;2.17;;
12171;SDS011;6149;52.418;13.668;2023-09-19T06:08:40;4.27;;;2.00;;
12171;SDS011;6149;52.418;13.668;2023-09-19T06:11:11;3.77;;;2.13;;
12171;SDS011;6149;52.418;13.668;2023-09-19T06:13:39;4.17;;;1.97;;
12171;SDS011;6149;52.418;13.668;2023-09-19T06:16:15;3.23;;;2.17;;
12171;SDS011;6149;52.418;13.668;2023-09-19T06:18:46;2.93;;;2.03;;
12171;SDS011;6149;52.418;13.668;2023-09-19T06:21:19;6.20;;;2.20;;
12171;SDS011;6149;52.418;13.668;2023-09-19T06:23:46;4.07;;;2.27;;
12171;SDS011;6149;52.418;13.668;2023-09-19T06:26:15;2.30;;;2.00;;
12171;SDS011;6149;52.418;13.668;2023-09-19T06:28:43;2.80;;;1.90;;
12171;SDS011;6149;52.418;13.668;2023-09-19T06:31:11;4.33;;;1.93;;
12171;SDS011;6149;52.418;13.668;2023-09-19T06:33:44;3.77;;;1.90;;
12171;SDS011;6149;52.418;13.668;2023-09-19T06:36:14;2.87;;;1.80;;
12171;SDS011;6149;52.418;13.668;2023-09-19T06:38:42;4.23;;;2.13;;
12171;SDS011;6149;52.418;13.668;2023-09-19T06:41:10;3.53;;;2.23;;
12171;SDS011;6149;52.418;13.668;2023-09-19T06:43:43;3.63;;;2.17;;
12171;SDS011;6149;52.418;13.668;2023-09-19T06:46:11;3.70;;;2.07;;
12171;SDS011;6149;52.418;13.668;2023-09-19T06:48:47;3.17;;;2.10;;
12171;SDS011;6149;52.418;13.668;2023-09-19T06:51:15;4.20;;;2.23;;
12171;SDS011;6149;52.418;13.668;2023-09-19T06:53:43;3.13;;;2.47;;
12171;SDS011;6149;52.418;13.668;2023-09-19T06:56:12;2.80;;;2.00;;
12171;SDS011;6149;52.418;13.668;2023-09-19T06:58:41;4.30;;;2.23;;
12171;SDS011;6149;52.418;13.668;2023-09-19T07:01:09;6.07;;;2.60;;
12171;SDS011;6149;52.418;13.668;2023-09-19T07:03:41;4.00;;;2.50;;
12171;SDS011;6149;52.418;13.668;2023-09-19T07:06:12;4.70;;;2.27;;
12171;SDS011;6149;52.418;13.668;2023-09-19T07:08:42;4.50;;;2.27;;
12171;SDS011;6149;52.418;13.668;2023-09-19T07:11:11;3.73;;;2.30;;
12171;SDS011;6149;52.418;13.668;2023-09-19T07:13:40;3.50;;;2.27;;
12171;SDS011;6149;52.418;13.668;2023-09-19T07:16:13;3.93;;;1.87;;
12171;SDS011;6149;52.418;13.668;2023-09-19T07:18:53;4.80;;;2.40;;
12171;SDS011;6149;52.418;13.668;2023-09-19T07:21:24;4.77;;;2.43;;
12171;SDS011;6149;52.418;13.668;2023-09-19T07:23:51;5.10;;;2.50;;
12171;SDS011;6149;52.418;13.668;2023-09-19T07:26:19;4.40;;;2.30;;
12171;SDS011;6149;52.418;13.668;2023-09-19T07:28:47;3.83;;;2.17;;
12171;SDS011;6149;52.418;13.668;2023-09-19T07:31:15;6.23;;;2.20;;
12171;SDS011;6149;52.418;13.668;2023-09-19T07:33:45;4.60;;;2.37;;
12171;SDS011;6149;52.418;13.668;2023-09-19T07:36:15;6.87;;;2.40;;
12171;SDS011;6149;52.418;13.668;2023-09-19T07:38:43;6.30;;;2.00;;
12171;SDS011;6149;52.418;13.668;2023-09-19T07:41:10;3.13;;;2.10;;
12171;SDS011;6149;52.418;13.668;2023-09-19T07:43:51;6.97;;;2.30;;
12171;SDS011;6149;52.418;13.668;2023-09-19T07:46:18;3.07;;;2.30;;
12171;SDS011;6149;52.418;13.668;2023-09-19T07:48:46;4.03;;;2.30;;
12171;SDS011;6149;52.418;13.668;2023-09-19T07:51:18;4.03;;;2.20;;
12171;SDS011;6149;52.418;13.668;2023-09-19T07:53:44;4.13;;;2.20;;
12171;SDS011;6149;52.418;13.668;2023-09-19T07:56:14;4.77;;;2.67;;
12171;SDS011;6149;52.418;13.668;2023-09-19T07:58:45;4.97;;;2.60;;
12171;SDS011;6149;52.418;13.668;2023-09-19T08:01:14;5.17;;;2.53;;
12171;SDS011;6149;52.418;13.668;2023-09-19T08:03:43;4.83;;;3.37;;
12171;SDS011;6149;52.418;13.668;2023-09-19T08:06:12;5.53;;;2.90;;
12171;SDS011;6149;52.418;13.668;2023-09-19T08:08:43;6.60;;;3.07;;
12171;SDS011;6149;52.418;13.668;2023-09-19T08:11:10;4.83;;;2.87;;
12171;SDS011;6149;52.418;13.668;2023-09-19T08:13:48;5.37;;;2.73;;
12171;SDS011;6149;52.418;13.668;2023-09-19T08:16:18;6.17;;;3.30;;
12171;SDS011;6149;52.418;13.668;2023-09-19T08:18:48;5.23;;;3.17;;
12171;SDS011;6149;52.418;13.668;2023-09-19T08:21:23;5.57;;;3.20;;
12171;SDS011;6149;52.418;13.668;2023-09-19T08:23:52;7.73;;;3.00;;
12171;SDS011;6149;52.418;13.668;2023-09-19T08:26:20;6.67;;;2.87;;
12171;SDS011;6149;52.418;13.668;2023-09-19T08:28:48;4.87;;;2.50;;
12171;SDS011;6149;52.418;13.668;2023-09-19T08:31:19;4.97;;;2.73;;
12171;SDS011;6149;52.418;13.668;2023-09-19T08:33:47;5.27;;;2.77;;
12171;SDS011;6149;52.418;13.668;2023-09-19T08:36:14;5.03;;;2.70;;
12171;SDS011;6149;52.418;13.668;2023-09-19T08:38:44;5.73;;;2.70;;
12171;SDS011;6149;52.418;13.668;2023-09-19T08:41:16;6.10;;;2.47;;
12171;SDS011;6149;52.418;13.668;2023-09-19T08:43:44;5.47;;;2.60;;
12171;SDS011;6149;52.418;13.668;2023-09-19T08:46:14;4.20;;;2.00;;
12171;SDS011;6149;52.418;13.668;2023-09-19T08:48:45;3.30;;;2.50;;
12171;SDS011;6149;52.418;13.668;2023-09-19T08:51:18;6.20;;;2.60;;
12171;SDS011;6149;52.418;13.668;2023-09-19T08:54:07;5.10;;;2.40;;
12171;SDS011;6149;52.418;13.668;2023-09-19T08:56:36;4.20;;;2.60;;
12171;SDS011;6149;52.418;13.668;2023-09-19T08:59:06;4.83;;;2.70;;
12171;SDS011;6149;52.418;13.668;2023-09-19T09:01:33;5.40;;;2.90;;
12171;SDS011;6149;52.418;13.668;2023-09-19T09:04:04;4.17;;;2.90;;
12171;SDS011;6149;52.418;13.668;2023-09-19T09:06:39;5.87;;;2.90;;
12171;SDS011;6149;52.418;13.668;2023-09-19T09:09:22;6.77;;;2.73;;
12171;SDS011;6149;52.418;13.668;2023-09-19T09:11:51;6.27;;;3.20;;
12171;SDS011;6149;52.418;13.668;2023-09-19T09:14:18;5.17;;;2.70;;
12171;SDS011;6149;52.418;13.668;2023-09-19T09:16:48;6.60;;;3.23;;
12171;SDS011;6149;52.418;13.668;2023-09-19T09:19:22;4.93;;;2.77;;
12171;SDS011;6149;52.418;13.668;2023-09-19T09:21:51;5.50;;;2.97;;
12171;SDS011;6149;52.418;13.668;2023-09-19T09:24:33;3.90;;;2.70;;
12171;SDS011;6149;52.418;13.668;2023-09-19T09:27:04;5.27;;;2.40;;
12171;SDS011;6149;52.418;13.668;2023-09-19T09:29:44;5.17;;;2.97;;
12171;SDS011;6149;52.418;13.668;2023-09-19T09:32:20;3.70;;;2.43;;
12171;SDS011;6149;52.418;13.668;2023-09-19T09:34:50;3.97;;;3.10;;
12171;SDS011;6149;52.418;13.668;2023-09-19T09:37:21;5.33;;;3.03;;
12171;SDS011;6149;52.418;13.668;2023-09-19T09:39:53;4.03;;;3.03;;
12171;SDS011;6149;52.418;13.668;2023-09-19T09:42:30;7.57;;;2.63;;
12171;SDS011;6149;52.418;13.668;2023-09-19T09:45:17;5.40;;;3.07;;
12171;SDS011;6149;52.418;13.668;2023-09-19T09:47:53;6.10;;;2.80;;
12171;SDS011;6149;52.418;13.668;2023-09-19T09:50:29;7.50;;;3.03;;
12171;SDS011;6149;52.418;13.668;2023-09-19T09:53:23;5.50;;;3.27;;
12171;SDS011;6149;52.418;13.668;2023-09-19T09:56:04;6.90;;;3.10;;
12171;SDS011;6149;52.418;13.668;2023-09-19T09:58:33;4.60;;;3.07;;
12171;SDS011;6149;52.418;13.668;2023-09-19T10:01:03;7.23;;;3.03;;
12171;SDS011;6149;52.418;13.668;2023-09-19T10:03:42;4.87;;;2.90;;
12171;SDS011;6149;52.418;13.668;2023-09-19T10:06:15;4.97;;;2.63;;
12171;SDS011;6149;52.418;13.668;2023-09-19T10:09:04;7.53;;;3.03;;
12171;SDS011;6149;52.418;13.668;2023-09-19T10:11:41;5.27;;;2.77;;
12171;SDS011;6149;52.418;13.668;2023-09-19T10:14:10;5.23;;;2.57;;
12171;SDS011;6149;52.418;13.668;2023-09-19T10:16:46;4.70;;;2.60;;
12171;SDS011;6149;52.418;13.668;2023-09-19T10:19:16;4.53;;;2.80;;
12171;SDS011;6149;52.418;13.668;2023-09-19T10:21:51;5.20;;;2.60;;
12171;SDS011;6149;52.418;13.668;2023-09-19T10:24:22;5.57;;;2.70;;
12171;SDS011;6149;52.418;13.668;2023-09-19T10:26:59;7.77;;;2.80;;
12171;SDS011;6149;52.418;13.668;2023-09-19T10:29:26;5.97;;;3.03;;
12171;SDS011;6149;52.418;13.668;2023-09-19T10:31:56;5.83;;;3.10;;
12171;SDS011;6149;52.418;13.668;2023-09-19T10:34:26;5.63;;;2.90;;
12171;SDS011;6149;52.418;13.668;2023-09-19T10:36:53;6.27;;;2.80;;
12171;SDS011;6149;52.418;13.668;2023-09-19T10:39:22;5.77;;;2.77;;
12171;SDS011;6149;52.418;13.668;2023-09-19T10:41:51;6.20;;;3.00;;
12171;SDS011;6149;52.418;13.668;2023-09-19T10:44:23;4.90;;;2.50;;
12171;SDS011;6149;52.418;13.668;2023-09-19T10:46:52;6.27;;;3.27;;
12171;SDS011;6149;52.418;13.668;2023-09-19T10:49:21;5.30;;;2.57;;
12171;SDS011;6149;52.418;13.668;2023-09-19T10:51:49;4.33;;;2.60;;
12171;SDS011;6149;52.418;13.668;2023-09-19T10:54:23;3.77;;;2.60;;
12171;SDS011;6149;52.418;13.668;2023-09-19T10:56:54;4.60;;;2.40;;
12171;SDS011;6149;52.418;13.668;2023-09-19T10:59:26;7.20;;;2.80;;
12171;SDS011;6149;52.418;13.668;2023-09-19T11:01:59;6.27;;;2.97;;
12171;SDS011;6149;52.418;13.668;2023-09-19T11:04:44;6.47;;;2.53;;
12171;SDS011;6149;52.418;13.668;2023-09-19T11:07:15;5.57;;;2.90;;
12171;SDS011;6149;52.418;13.668;2023-09-19T11:09:46;7.10;;;3.07;;
12171;SDS011;6149;52.418;13.668;2023-09-19T11:18:51;7.77;;;3.03;;
12171;SDS011;6149;52.418;13.668;2023-09-19T11:21:39;6.13;;;3.10;;
12171;SDS011;6149;52.418;13.668;2023-09-19T11:24:29;4.67;;;2.53;;
12171;SDS011;6149;52.418;13.668;2023-09-19T11:27:13;6.10;;;2.90;;
12171;SDS011;6149;52.418;13.668;2023-09-19T11:29:42;5.90;;;2.83;;
12171;SDS011;6149;52.418;13.668;2023-09-19T11:32:15;8.20;;;3.40;;
12171;SDS011;6149;52.418;13.668;2023-09-19T11:34:47;6.33;;;2.80;;
12171;SDS011;6149;52.418;13.668;2023-09-19T11:40:28;5.90;;;3.10;;
12171;SDS011;6149;52.418;13.668;2023-09-19T11:42:57;7.00;;;2.60;;
12171;SDS011;6149;52.418;13.668;2023-09-19T11:48:37;6.93;;;2.80;;
12171;SDS011;6149;52.418;13.668;2023-09-19T11:51:18;4.77;;;2.63;;
12171;SDS011;6149;52.418;13.668;2023-09-19T11:53:50;9.43;;;3.17;;
12171;SDS011;6149;52.418;13.668;2023-09-19T11:56:21;6.10;;;2.53;;
12171;SDS011;6149;52.418;13.668;2023-09-19T11:58:50;7.67;;;2.70;;
12171;SDS011;6149;52.418;13.668;2023-09-19T12:01:22;5.23;;;2.43;;
12171;SDS011;6149;52.418;13.668;2023-09-19T12:03:55;5.97;;;2.63;;
12171;SDS011;6149;52.418;13.668;2023-09-19T12:06:26;4.80;;;2.30;;
12171;SDS011;6149;52.418;13.668;2023-09-19T12:08:54;5.43;;;2.70;;
12171;SDS011;6149;52.418;13.668;2023-09-19T12:11:27;4.17;;;2.53;;
12171;SDS011;6149;52.418;13.668;2023-09-19T12:13:59;6.87;;;2.87;;
12171;SDS011;6149;52.418;13.668;2023-09-19T12:16:29;4.87;;;2.37;;
12171;SDS011;6149;52.418;13.668;2023-09-19T12:19:00;6.60;;;2.73;;
12171;SDS011;6149;52.418;13.668;2023-09-19T12:21:53;6.13;;;2.40;;
12171;SDS011;6149;52.418;13.668;2023-09-19T12:24:24;7.23;;;2.50;;
12171;SDS011;6149;52.418;13.668;2023-09-19T12:26:54;4.47;;;2.37;;
12171;SDS011;6149;52.418;13.668;2023-09-19T12:29:29;4.63;;;2.17;;
12171;SDS011;6149;52.418;13.668;2023-09-19T12:32:03;5.57;;;2.47;;
12171;SDS011;6149;52.418;13.668;2023-09-19T12:34:35;5.47;;;2.17;;
12171;SDS011;6149;52.418;13.668;2023-09-19T12:37:10;4.60;;;2.20;;
12171;SDS011;6149;52.418;13.668;2023-09-19T12:39:39;7.07;;;2.37;;
12171;SDS011;6149;52.418;13.668;2023-09-19T12:42:16;7.40;;;2.30;;
12171;SDS011;6149;52.418;13.668;2023-09-19T12:44:46;4.67;;;2.20;;
12171;SDS011;6149;52.418;13.668;2023-09-19T12:47:21;4.53;;;2.20;;
12171;SDS011;6149;52.418;13.668;2023-09-19T12:50:07;4.00;;;2.10;;
12171;SDS011;6149;52.418;13.668;2023-09-19T12:52:44;6.40;;;1.90;;
12171;SDS011;6149;52.418;13.668;2023-09-19T12:55:24;5.60;;;2.40;;
12171;SDS011;6149;52.418;13.668;2023-09-19T12:58:00;4.80;;;2.17;;
12171;SDS011;6149;52.418;13.668;2023-09-19T13:00:41;3.30;;;1.93;;
12171;SDS011;6149;52.418;13.668;2023-09-19T13:03:17;6.23;;;2.50;;
12171;SDS011;6149;52.418;13.668;2023-09-19T13:05:54;6.40;;;2.60;;
12171;SDS011;6149;52.418;13.668;2023-09-19T13:08:27;4.87;;;2.30;;
12171;SDS011;6149;52.418;13.668;2023-09-19T13:11:05;3.97;;;2.40;;
12171;SDS011;6149;52.418;13.668;2023-09-19T13:13:39;4.57;;;2.23;;
12171;SDS011;6149;52.418;13.668;2023-09-19T13:16:20;4.17;;;2.10;;
12171;SDS011;6149;52.418;13.668;2023-09-19T13:18:51;6.97;;;2.37;;
12171;SDS011;6149;52.418;13.668;2023-09-19T13:21:31;5.60;;;2.20;;
12171;SDS011;6149;52.418;13.668;2023-09-19T13:24:23;3.27;;;1.83;;
12171;SDS011;6149;52.418;13.668;2023-09-19T13:26:52;4.97;;;2.10;;
12171;SDS011;6149;52.418;13.668;2023-09-19T13:29:20;3.50;;;2.07;;
12171;SDS011;6149;52.418;13.668;2023-09-19T13:31:48;3.23;;;1.90;;
12171;SDS011;6149;52.418;13.668;2023-09-19T13:34:18;5.00;;;2.13;;
12171;SDS011;6149;52.418;13.668;2023-09-19T13:36:51;5.10;;;1.93;;
12171;SDS011;6149;52.418;13.668;2023-09-19T13:39:21;3.80;;;2.23;;
12171;SDS011;6149;52.418;13.668;2023-09-19T13:41:49;3.07;;;1.60;;
12171;SDS011;6149;52.418;13.668;2023-09-19T13:44:18;3.80;;;1.83;;
12171;SDS011;6149;52.418;13.668;2023-09-19T13:46:49;3.77;;;1.83;;
12171;SDS011;6149;52.418;13.668;2023-09-19T13:49:21;3.67;;;1.63;;
12171;SDS011;6149;52.418;13.668;2023-09-19T13:51:51;4.07;;;2.10;;
12171;SDS011;6149;52.418;13.668;2023-09-19T13:54:19;6.37;;;2.07;;
12171;SDS011;6149;52.418;13.668;2023-09-19T13:56:49;3.80;;;1.70;;
12171;SDS011;6149;52.418;13.668;2023-09-19T13:59:19;4.10;;;1.80;;
12171;SDS011;6149;52.418;13.668;2023-09-19T14:01:49;3.80;;;1.80;;
12171;SDS011;6149;52.418;13.668;2023-09-19T14:04:19;5.10;;;1.70;;
12171;SDS011;6149;52.418;13.668;2023-09-19T14:06:51;2.83;;;1.87;;
12171;SDS011;6149;52.418;13.668;2023-09-19T14:09:20;4.27;;;2.00;;
12171;SDS011;6149;52.418;13.668;2023-09-19T14:11:49;4.10;;;1.83;;
12171;SDS011;6149;52.418;13.668;2023-09-19T14:14:19;4.87;;;2.00;;
12171;SDS011;6149;52.418;13.668;2023-09-19T14:16:48;3.33;;;1.97;;
12171;SDS011;6149;52.418;13.668;2023-09-19T14:19:16;5.93;;;2.00;;
12171;SDS011;6149;52.418;13.668;2023-09-19T14:21:44;3.63;;;1.97;;
12171;SDS011;6149;52.418;13.668;2023-09-19T14:24:17;3.13;;;1.80;;
12171;SDS011;6149;52.418;13.668;2023-09-19T14:26:45;4.77;;;2.23;;
12171;SDS011;6149;52.418;13.668;2023-09-19T14:29:15;3.10;;;1.70;;
12171;SDS011;6149;52.418;13.668;2023-09-19T14:31:43;8.13;;;2.70;;
12171;SDS011;6149;52.418;13.668;2023-09-19T14:34:13;3.07;;;1.77;;
12171;SDS011;6149;52.418;13.668;2023-09-19T14:36:41;6.03;;;1.73;;
12171;SDS011;6149;52.418;13.668;2023-09-19T14:39:11;3.00;;;1.70;;
12171;SDS011;6149;52.418;13.668;2023-09-19T14:41:44;5.00;;;1.97;;
12171;SDS011;6149;52.418;13.668;2023-09-19T14:44:10;4.10;;;2.13;;
12171;SDS011;6149;52.418;13.668;2023-09-19T14:46:42;3.80;;;2.17;;
12171;SDS011;6149;52.418;13.668;2023-09-19T14:49:10;4.03;;;1.70;;
12171;SDS011;6149;52.418;13.668;2023-09-19T14:51:39;4.93;;;1.93;;
12171;SDS011;6149;52.418;13.668;2023-09-19T14:54:07;4.50;;;1.57;;
12171;SDS011;6149;52.418;13.668;2023-09-19T14:56:35;4.20;;;1.80;;
12171;SDS011;6149;52.418;13.668;2023-09-19T14:59:04;4.10;;;2.00;;
12171;SDS011;6149;52.418;13.668;2023-09-19T15:01:41;6.00;;;2.30;;
12171;SDS011;6149;52.418;13.668;2023-09-19T15:04:10;3.57;;;2.00;;
12171;SDS011;6149;52.418;13.668;2023-09-19T15:06:37;4.87;;;2.33;;
12171;SDS011;6149;52.418;13.668;2023-09-19T15:09:05;4.53;;;2.20;;
12171;SDS011;6149;52.418;13.668;2023-09-19T15:11:33;6.73;;;2.07;;
12171;SDS011;6149;52.418;13.668;2023-09-19T15:14:00;4.27;;;2.13;;
12171;SDS011;6149;52.418;13.668;2023-09-19T15:16:30;6.57;;;2.30;;
12171;SDS011;6149;52.418;13.668;2023-09-19T15:19:02;4.67;;;1.70;;
12171;SDS011;6149;52.418;13.668;2023-09-19T15:21:33;5.00;;;2.10;;
12171;SDS011;6149;52.418;13.668;2023-09-19T15:24:02;5.57;;;2.20;;
12171;SDS011;6149;52.418;13.668;2023-09-19T15:26:36;6.80;;;2.13;;
12171;SDS011;6149;52.418;13.668;2023-09-19T15:29:04;5.67;;;2.30;;